This is the latest recevied weather packets stored in our database for station/object OM3WYM-13. If no packets are shown the sender has not sent any weather packets the latest 1 day(s).
| Time | Temp. | Humidity | Pressure | Rain* | Wind** | Luminosity | Snow |
|---|---|---|---|---|---|---|---|
| 1778091608 | 20° C | 46% | 1009 hPa | - | - | - | - |
| 1778067615 | 23.89° C | 37% | 1009.8 hPa | - | - | - | - |
| 1778057408 | 18.89° C | 49% | 1011.1 hPa | - | - | - | - |
| 1778056208 | 17.78° C | 51% | 1011.4 hPa | - | - | - | - |
| 1778053808 | 18.33° C | 47% | 1011.1 hPa | - | - | - | - |
| 1778053211 | 18.33° C | 46% | 1010.8 hPa | - | - | - | - |
| 1778052008 | 17.78° C | 45% | 1010.6 hPa | - | - | - | - |
| 1778050208 | 18.33° C | 41% | 1010.3 hPa | - | - | - | - |
| 1778047808 | 16.67° C | 47% | 1010.2 hPa | - | - | - | - |
| 1778047210 | 16.11° C | 48% | 1010.3 hPa | - | - | - | - |
| 1778041208 | 7.22° C | 75% | 1011.4 hPa | - | - | - | - |
| 1778039408 | 7.22° C | 74% | 1011.4 hPa | - | - | - | - |
| 1778037008 | 8.33° C | 69% | 1011.4 hPa | - | - | - | - |
| 1778036408 | 8.33° C | 68% | 1011.4 hPa | - | - | - | - |
| 1778035208 | 8.89° C | 65% | 1011.2 hPa | - | - | - | - |
| 1778034008 | 9.44° C | 63% | 1010.9 hPa | - | - | - | - |
| 1778033408 | 8.89° C | 64% | 1010.8 hPa | - | - | - | - |
| 1778032208 | 9.44° C | 64% | 1010.7 hPa | - | - | - | - |
| 1778031608 | 9.44° C | 64% | 1010.8 hPa | - | - | - | - |
| 1778026808 | 8.89° C | 64% | 1010.5 hPa | - | - | - | - |
* Rain since midnight (hover to see other rain measurements)
** Current wind speed in m/s (hover to see current wind gust speed)